Time;durP1;ratioP1;P1;durP2;ratioP2;P2;SDS_P1;SDS_P2;PMS_P1;PMS_P2;Temp;Humidity;BMP_temperature;BMP_pressure;BME280_temperature;BME280_humidity;BME280_pressure;Samples;Min_cycle;Max_cycle;Signal;HPM_P1;HPM_P2
2022/08/16 00:02:07;;;;;;;4.13;2.47;;;23.40;83.50;;;;;;5019941;28;20028;-82
2022/08/16 00:04:33;;;;;;;4.03;2.60;;;23.40;83.50;;;;;;5019487;28;20397;-81
2022/08/16 00:06:58;;;;;;;4.18;2.70;;;23.40;83.50;;;;;;5037231;28;20034;-81
2022/08/16 00:09:25;;;;;;;4.72;2.63;;;23.40;83.50;;;;;;5019828;28;20025;-79
2022/08/16 00:11:50;;;;;;;4.03;2.55;;;23.40;83.40;;;;;;5018656;28;20484;-81
2022/08/16 00:14:22;;;;;;;3.97;2.60;;;23.40;83.30;;;;;;5018512;28;20036;-81
2022/08/16 00:16:47;;;;;;;4.38;2.60;;;23.50;83.40;;;;;;5036975;28;20021;-82
2022/08/16 00:19:24;;;;;;;4.18;2.70;;;23.40;83.30;;;;;;5036304;28;20056;-80
2022/08/16 00:21:52;;;;;;;5.05;2.80;;;23.40;83.40;;;;;;5018717;28;20435;-81
2022/08/16 00:24:18;;;;;;;4.60;2.72;;;23.40;83.40;;;;;;5018563;28;20056;-80
2022/08/16 00:26:44;;;;;;;4.03;2.70;;;23.40;83.50;;;;;;5018878;28;20401;-81
2022/08/16 00:29:11;;;;;;;5.13;2.88;;;23.40;83.60;;;;;;5018127;28;20030;-80
2022/08/16 00:31:37;;;;;;;3.88;2.60;;;23.40;83.60;;;;;;5017228;28;20075;-81
2022/08/16 00:34:03;;;;;;;4.30;2.60;;;23.40;83.70;;;;;;5017624;28;20025;-81
2022/08/16 00:36:28;;;;;;;4.65;2.58;;;23.40;84.20;;;;;;5017424;28;20385;-82
2022/08/16 00:38:54;;;;;;;4.45;2.70;;;23.40;83.70;;;;;;5035217;28;20079;-82
2022/08/16 00:41:20;;;;;;;4.93;2.88;;;23.30;83.70;;;;;;5017291;28;20048;-81
2022/08/16 00:43:46;;;;;;;4.40;2.50;;;23.30;83.70;;;;;;5035906;28;20028;-81
2022/08/16 00:46:37;;;;;;;4.47;2.70;;;23.40;83.70;;;;;;5021245;28;20416;-81
2022/08/16 00:49:08;;;;;;;4.22;2.50;;;23.30;83.70;;;;;;5020105;28;20049;-80
2022/08/16 00:51:33;;;;;;;4.10;2.67;;;23.40;83.70;;;;;;5020177;28;20036;-80
2022/08/16 00:53:59;;;;;;;3.83;2.40;;;23.40;83.60;;;;;;5020134;28;20017;-80
2022/08/16 00:56:32;;;;;;;4.10;2.40;;;23.40;83.50;;;;;;5020511;28;20025;-81
2022/08/16 00:58:58;;;;;;;4.70;2.78;;;23.40;83.50;;;;;;5038235;28;20036;-81
2022/08/16 01:01:25;;;;;;;4.15;2.60;;;23.40;83.40;;;;;;5019821;28;20029;-81
2022/08/16 01:03:53;;;;;;;4.95;2.78;;;23.40;83.50;;;;;;5019959;28;20033;-80
2022/08/16 01:06:20;;;;;;;3.88;2.53;;;23.40;83.40;;;;;;5038103;28;20037;-81
2022/08/16 01:08:50;;;;;;;4.65;2.65;;;23.40;83.50;;;;;;5020339;28;20093;-80
2022/08/16 01:11:16;;;;;;;4.38;2.65;;;23.40;83.60;;;;;;5019722;28;20025;-80
2022/08/16 01:13:43;;;;;;;4.57;2.78;;;23.40;83.60;;;;;;5019501;28;20021;-80
2022/08/16 01:16:21;;;;;;;4.05;2.60;;;23.40;83.70;;;;;;5019844;28;20018;-80
2022/08/16 01:19:08;;;;;;;4.20;2.40;;;23.30;83.70;;;;;;5019804;28;20722;-80
2022/08/16 01:21:38;;;;;;;3.92;2.45;;;23.30;83.70;;;;;;5019307;28;20029;-80
2022/08/16 01:24:22;;;;;;;5.38;2.70;;;23.30;83.80;;;;;;5037702;28;20401;-82
2022/08/16 01:26:50;;;;;;;4.35;2.50;;;23.30;83.80;;;;;;5037244;28;20535;-80
2022/08/16 01:29:22;;;;;;;4.18;2.67;;;23.30;83.80;;;;;;5037766;28;20048;-80
2022/08/16 01:31:48;;;;;;;4.03;2.35;;;23.30;83.80;;;;;;5037082;28;20057;-80
2022/08/16 01:34:14;;;;;;;4.45;2.65;;;23.30;83.80;;;;;;5019357;28;20087;-80
2022/08/16 01:36:40;;;;;;;4.70;2.58;;;23.30;83.70;;;;;;5037063;28;20459;-80
2022/08/16 01:39:13;;;;;;;4.35;2.70;;;23.40;83.70;;;;;;5019261;28;20057;-81
2022/08/16 01:41:39;;;;;;;3.88;2.40;;;23.40;83.70;;;;;;5018630;28;20032;-81
2022/08/16 01:44:05;;;;;;;3.28;2.20;;;23.40;83.60;;;;;;5036879;28;20031;-80
2022/08/16 01:46:44;;;;;;;4.50;2.55;;;23.40;83.50;;;;;;5036958;28;20383;-81
2022/08/16 01:49:17;;;;;;;4.13;2.72;;;23.40;83.50;;;;;;5039952;28;20029;-81
2022/08/16 01:51:46;;;;;;;4.75;2.50;;;23.40;83.50;;;;;;5021414;28;20033;-81
2022/08/16 01:54:11;;;;;;;3.90;2.58;;;23.40;83.60;;;;;;5022109;28;20487;-82
2022/08/16 01:56:38;;;;;;;4.05;2.60;;;23.30;83.60;;;;;;5039203;28;20026;-81
2022/08/16 01:59:06;;;;;;;3.85;2.50;;;23.30;83.70;;;;;;5021758;28;20040;-81
2022/08/16 02:01:32;;;;;;;4.65;2.58;;;23.30;83.70;;;;;;5021018;28;20405;-81
2022/08/16 02:03:58;;;;;;;4.20;2.60;;;23.30;83.80;;;;;;5038956;28;20032;-82
2022/08/16 02:06:25;;;;;;;5.03;2.72;;;23.30;83.80;;;;;;5020765;28;20555;-81
2022/08/16 02:08:50;;;;;;;4.03;2.50;;;23.30;83.90;;;;;;5038412;28;20029;-82
2022/08/16 02:11:16;;;;;;;4.93;2.85;;;23.30;83.80;;;;;;5020124;28;20022;-81
2022/08/16 02:13:42;;;;;;;4.53;2.67;;;23.30;83.90;;;;;;5020239;28;20504;-81
2022/08/16 02:16:09;;;;;;;3.55;2.30;;;23.30;83.90;;;;;;5020230;28;20093;-80
2022/08/16 02:18:35;;;;;;;6.00;2.58;;;23.30;83.90;;;;;;5020038;28;20396;-82
2022/08/16 02:21:03;;;;;;;3.78;2.50;;;23.30;83.90;;;;;;5019153;28;20026;-81
2022/08/16 02:23:28;;;;;;;4.07;2.40;;;23.30;83.90;;;;;;5037133;28;20030;-81
2022/08/16 02:25:54;;;;;;;3.90;2.40;;;23.30;83.80;;;;;;5036981;28;20033;-80
2022/08/16 02:28:23;;;;;;;3.67;2.38;;;23.40;83.80;;;;;;5018974;28;20087;-81
2022/08/16 02:30:48;;;;;;;4.40;2.67;;;23.30;83.60;;;;;;5015671;28;20025;-81
2022/08/16 02:33:15;;;;;;;3.58;2.38;;;23.40;83.70;;;;;;5018819;28;20025;-80
2022/08/16 02:35:40;;;;;;;4.55;2.78;;;23.40;83.60;;;;;;5019037;28;20120;-81
2022/08/16 02:38:07;;;;;;;3.90;2.60;;;23.40;83.70;;;;;;5018734;28;20108;-82
2022/08/16 02:40:33;;;;;;;3.97;2.60;;;23.30;83.60;;;;;;5018452;28;20029;-82
2022/08/16 02:42:59;;;;;;;4.20;2.60;;;23.30;83.70;;;;;;5036354;28;20025;-81
2022/08/16 02:45:26;;;;;;;3.80;2.50;;;23.30;83.80;;;;;;5018332;28;20117;-81
2022/08/16 02:47:53;;;;;;;3.95;2.55;;;23.30;83.80;;;;;;5018281;28;20497;-80
2022/08/16 02:50:19;;;;;;;3.45;2.45;;;23.30;83.90;;;;;;5035380;28;20478;-80
2022/08/16 02:52:45;;;;;;;4.15;2.58;;;23.30;83.90;;;;;;5036355;28;20025;-81
2022/08/16 02:55:11;;;;;;;4.30;2.67;;;23.30;84.00;;;;;;5018356;28;20025;-81
2022/08/16 02:57:37;;;;;;;4.35;2.88;;;23.30;83.90;;;;;;5036348;28;20025;-82
2022/08/16 03:00:08;;;;;;;4.57;2.70;;;23.30;84.00;;;;;;5018085;28;20033;-80
2022/08/16 03:02:34;;;;;;;3.95;2.60;;;23.30;84.00;;;;;;5018310;28;20068;-81
2022/08/16 03:04:59;;;;;;;4.38;2.50;;;23.30;84.00;;;;;;5017764;28;20029;-83
2022/08/16 03:07:25;;;;;;;3.45;2.30;;;23.30;84.00;;;;;;5020570;28;20079;-81
2022/08/16 03:09:50;;;;;;;3.72;2.50;;;23.30;84.00;;;;;;5020449;28;20028;-82
2022/08/16 03:12:18;;;;;;;3.83;2.47;;;23.30;83.90;;;;;;5020620;28;20013;-83
2022/08/16 03:14:43;;;;;;;4.00;2.33;;;23.30;83.90;;;;;;5037849;28;20060;-82
2022/08/16 03:17:09;;;;;;;3.13;2.20;;;23.30;83.80;;;;;;5038233;28;20390;-82
2022/08/16 03:19:34;;;;;;;4.18;2.22;;;23.30;83.80;;;;;;5020150;28;20025;-83
2022/08/16 03:22:00;;;;;;;3.75;2.47;;;23.30;83.70;;;;;;5019219;28;20021;-82
2022/08/16 03:24:27;;;;;;;4.03;2.53;;;23.30;83.70;;;;;;5019829;28;20531;-82
2022/08/16 03:26:52;;;;;;;4.88;2.60;;;23.30;83.70;;;;;;5019755;28;20030;-81
2022/08/16 03:29:18;;;;;;;5.07;2.60;;;23.30;83.80;;;;;;5037119;28;20033;-81
2022/08/16 03:31:44;;;;;;;4.45;2.60;;;23.30;83.90;;;;;;5018496;28;20021;-82
2022/08/16 03:34:09;;;;;;;4.43;2.70;;;23.30;83.90;;;;;;5019101;28;20030;-83
2022/08/16 03:36:35;;;;;;;4.22;2.72;;;23.30;84.00;;;;;;5036293;28;20385;-81
2022/08/16 03:39:00;;;;;;;4.00;2.33;;;23.30;84.00;;;;;;5019224;28;20056;-81
2022/08/16 03:41:26;;;;;;;3.55;2.47;;;23.30;84.10;;;;;;5018486;28;20443;-81
2022/08/16 03:43:53;;;;;;;4.13;2.42;;;23.20;84.10;;;;;;5018182;28;20539;-81
2022/08/16 03:46:20;;;;;;;3.63;2.40;;;23.20;84.10;;;;;;5035682;28;20025;-81
2022/08/16 03:48:46;;;;;;;3.75;2.63;;;23.30;84.20;;;;;;5018181;28;20033;-82
2022/08/16 03:51:12;;;;;;;3.67;2.40;;;23.20;84.20;;;;;;5035889;28;20436;-81
2022/08/16 03:53:38;;;;;;;4.45;2.25;;;23.30;84.20;;;;;;5030420;28;20081;-81
2022/08/16 03:56:06;;;;;;;4.03;2.35;;;23.30;84.10;;;;;;4998972;28;20057;-81
2022/08/16 03:58:31;;;;;;;4.40;2.40;;;23.30;84.10;;;;;;5016613;28;20026;-82
2022/08/16 04:00:57;;;;;;;4.20;2.30;;;23.30;84.00;;;;;;4997034;28;20022;-81
2022/08/16 04:03:23;;;;;;;2.95;2.13;;;23.30;83.90;;;;;;5015490;28;20029;-82
2022/08/16 04:05:50;;;;;;;4.68;2.33;;;23.30;83.90;;;;;;5015289;28;20025;-81
2022/08/16 04:08:18;;;;;;;3.83;2.50;;;23.30;83.80;;;;;;5014769;28;20014;-81
2022/08/16 04:10:43;;;;;;;4.15;2.35;;;23.30;83.90;;;;;;4996895;28;20022;-80
2022/08/16 04:13:09;;;;;;;4.13;2.42;;;23.30;83.80;;;;;;5014825;28;20025;-81
2022/08/16 04:15:34;;;;;;;3.60;2.30;;;23.30;83.90;;;;;;4997368;28;20018;-81
2022/08/16 04:18:00;;;;;;;3.90;2.65;;;23.30;84.00;;;;;;5016349;28;20046;-82
2022/08/16 04:20:26;;;;;;;3.50;2.40;;;23.30;84.00;;;;;;5001279;28;20028;-81
2022/08/16 04:22:52;;;;;;;3.55;2.30;;;23.30;84.10;;;;;;5001305;28;20068;-80
2022/08/16 04:25:18;;;;;;;3.92;2.50;;;23.20;84.10;;;;;;5001124;28;20030;-80
2022/08/16 04:27:44;;;;;;;3.40;2.40;;;23.20;84.60;;;;;;5001100;28;20472;-81
2022/08/16 04:30:13;;;;;;;4.15;2.47;;;23.20;84.10;;;;;;5000377;28;20164;-80
2022/08/16 04:32:40;;;;;;;3.25;2.17;;;23.20;84.10;;;;;;5015731;28;20053;-81
2022/08/16 04:35:12;;;;;;;3.65;2.20;;;23.20;84.20;;;;;;5020443;28;20045;-81
2022/08/16 04:37:38;;;;;;;3.63;2.20;;;23.20;84.10;;;;;;5020507;28;20024;-80
2022/08/16 04:40:05;;;;;;;3.22;2.30;;;23.20;84.20;;;;;;5037426;28;20607;-82
2022/08/16 04:42:30;;;;;;;3.42;2.20;;;23.20;84.10;;;;;;5019945;28;20028;-81
2022/08/16 04:44:57;;;;;;;3.85;2.30;;;23.30;84.10;;;;;;5038413;28;20025;-81
2022/08/16 04:47:28;;;;;;;3.83;2.17;;;23.20;84.00;;;;;;5037203;28;20030;-82
2022/08/16 04:49:53;;;;;;;3.00;2.00;;;23.30;84.00;;;;;;5020850;28;20112;-81
2022/08/16 04:52:22;;;;;;;3.45;2.25;;;23.30;83.90;;;;;;5039318;28;20049;-81
2022/08/16 04:54:48;;;;;;;3.97;2.30;;;23.30;83.90;;;;;;5025301;28;20021;-82
2022/08/16 04:57:14;;;;;;;3.28;2.20;;;23.30;83.80;;;;;;5017337;28;20033;-81
2022/08/16 04:59:39;;;;;;;3.10;2.10;;;23.30;83.70;;;;;;5004232;28;20072;-82
2022/08/16 05:02:05;;;;;;;3.35;2.28;;;23.30;83.90;;;;;;5052684;28;20064;-81
2022/08/16 05:04:30;;;;;;;3.83;2.33;;;23.30;83.90;;;;;;5039605;28;20089;-81
2022/08/16 05:06:56;;;;;;;3.83;2.40;;;23.20;83.90;;;;;;5040023;28;20433;-81
2022/08/16 05:09:22;;;;;;;3.80;2.50;;;23.30;84.00;;;;;;5022080;28;20021;-82
2022/08/16 05:11:47;;;;;;;4.35;2.53;;;23.30;84.10;;;;;;5039156;28;20113;-83
2022/08/16 05:14:13;;;;;;;3.55;2.20;;;23.20;84.60;;;;;;5021586;28;20025;-81
2022/08/16 05:16:38;;;;;;;3.20;2.28;;;23.20;84.10;;;;;;5021199;28;20018;-81
2022/08/16 05:19:05;;;;;;;4.15;2.50;;;23.20;84.10;;;;;;5021281;28;20380;-86
2022/08/16 05:21:32;;;;;;;3.75;2.38;;;23.20;84.10;;;;;;5019799;28;20030;-82
2022/08/16 05:23:58;;;;;;;3.92;2.30;;;23.20;84.10;;;;;;5020742;28;20083;-80
2022/08/16 05:26:27;;;;;;;3.17;2.25;;;23.20;84.10;;;;;;5037831;28;20033;-82
2022/08/16 05:28:53;;;;;;;3.60;2.15;;;23.30;84.10;;;;;;5020856;28;20542;-83
2022/08/16 05:31:18;;;;;;;4.55;2.30;;;23.30;84.00;;;;;;5017544;28;20026;-81
2022/08/16 05:33:44;;;;;;;3.90;2.40;;;23.30;84.00;;;;;;5037266;28;20053;-81
2022/08/16 05:36:09;;;;;;;4.53;2.20;;;23.30;83.90;;;;;;5036290;28;20022;-79
2022/08/16 05:38:35;;;;;;;6.53;2.40;;;23.30;83.70;;;;;;5036625;28;20017;-83
2022/08/16 05:41:02;;;;;;;8.55;2.78;;;23.30;83.70;;;;;;5035173;28;20021;-82
2022/08/16 05:43:28;;;;;;;8.40;2.47;;;23.30;83.50;;;;;;5036832;28;20113;-81
2022/08/16 05:45:54;;;;;;;8.85;3.00;;;23.30;83.50;;;;;;5038115;28;20053;-84
2022/08/16 05:48:20;;;;;;;7.28;2.70;;;23.30;84.10;;;;;;5036062;28;20104;-82
2022/08/16 05:50:46;;;;;;;7.65;2.85;;;23.30;83.40;;;;;;5037576;28;20049;-85
2022/08/16 05:53:11;;;;;;;6.40;2.70;;;23.30;83.40;;;;;;5037623;28;20048;-81
2022/08/16 05:55:37;;;;;;;6.78;2.92;;;23.30;83.30;;;;;;5035540;28;20029;-82
2022/08/16 05:58:03;;;;;;;6.22;2.90;;;23.30;83.30;;;;;;5038465;28;20080;-81
2022/08/16 06:00:30;;;;;;;7.35;2.95;;;23.30;83.20;;;;;;5035959;28;20025;-82
2022/08/16 06:02:56;;;;;;;6.57;2.95;;;23.30;83.20;;;;;;5035693;28;20400;-80
2022/08/16 06:05:22;;;;;;;12.38;3.42;;;23.40;83.20;;;;;;5037429;28;20029;-81
2022/08/16 06:07:47;;;;;;;6.55;3.30;;;23.40;83.10;;;;;;5036140;28;20030;-80
2022/08/16 06:10:13;;;;;;;7.22;2.78;;;23.40;83.10;;;;;;5036821;28;20038;-82
2022/08/16 06:12:39;;;;;;;5.65;2.60;;;23.30;83.20;;;;;;5036375;28;20028;-80
2022/08/16 06:15:09;;;;;;;7.18;2.90;;;23.30;83.20;;;;;;5038237;28;20021;-84
2022/08/16 06:17:35;;;;;;;5.47;2.70;;;23.40;83.40;;;;;;5039676;28;20029;-83
2022/08/16 06:20:01;;;;;;;6.90;2.95;;;23.40;83.30;;;;;;5039090;28;20373;-83
2022/08/16 06:22:26;;;;;;;6.65;2.63;;;23.40;83.20;;;;;;5038093;28;20028;-83
2022/08/16 06:24:52;;;;;;;6.93;2.83;;;23.40;83.20;;;;;;5038624;28;20029;-84
2022/08/16 06:27:17;;;;;;;8.80;3.10;;;23.40;83.10;;;;;;5039410;28;20039;-82
2022/08/16 06:29:43;;;;;;;6.05;3.13;;;23.40;83.10;;;;;;5037271;28;20087;-82
2022/08/16 06:32:10;;;;;;;5.82;2.83;;;23.40;83.10;;;;;;5037983;28;20025;-82
2022/08/16 06:34:36;;;;;;;6.80;3.03;;;23.40;83.10;;;;;;5038843;28;20473;-82
2022/08/16 06:37:02;;;;;;;7.25;3.17;;;23.40;83.10;;;;;;5037229;28;20029;-83
2022/08/16 06:39:28;;;;;;;5.55;2.80;;;23.40;83.10;;;;;;5036805;28;20025;-82
2022/08/16 06:41:54;;;;;;;5.38;2.85;;;23.40;83.20;;;;;;5036728;28;20033;-82
2022/08/16 06:44:19;;;;;;;5.40;2.72;;;23.40;83.20;;;;;;5035948;28;20029;-83
2022/08/16 06:46:45;;;;;;;6.90;2.83;;;23.40;83.20;;;;;;5036100;28;20505;-83
2022/08/16 06:49:11;;;;;;;5.63;2.80;;;23.40;83.20;;;;;;5037240;28;20033;-83
2022/08/16 06:51:39;;;;;;;6.90;2.90;;;23.40;83.30;;;;;;5037368;28;20021;-81
2022/08/16 06:54:05;;;;;;;6.88;2.80;;;23.40;83.30;;;;;;5037385;28;20021;-82
2022/08/16 06:56:31;;;;;;;6.93;3.00;;;23.40;83.10;;;;;;5035602;28;20083;-82
2022/08/16 06:58:57;;;;;;;4.72;2.80;;;23.40;83.10;;;;;;5035340;28;20123;-82
2022/08/16 07:01:23;;;;;;;5.90;2.80;;;23.40;83.20;;;;;;5035103;28;20056;-83
2022/08/16 07:03:49;;;;;;;6.60;2.58;;;23.50;83.10;;;;;;5038919;28;20075;-84
2022/08/16 07:06:15;;;;;;;6.68;2.80;;;23.50;82.80;;;;;;5038585;28;20029;-83
2022/08/16 07:08:41;;;;;;;6.70;3.10;;;23.60;82.70;;;;;;5038077;28;20025;-83
2022/08/16 07:11:07;;;;;;;4.45;2.60;;;23.60;82.40;;;;;;5037121;28;20079;-84
2022/08/16 07:13:35;;;;;;;6.50;2.65;;;23.70;82.40;;;;;;5037840;28;20064;-82
2022/08/16 07:16:02;;;;;;;4.75;2.80;;;23.70;82.20;;;;;;5037223;28;20018;-84
2022/08/16 07:18:28;;;;;;;6.78;2.80;;;23.70;82.20;;;;;;5036931;28;20075;-81
2022/08/16 07:20:54;;;;;;;6.53;3.25;;;23.70;82.30;;;;;;5037349;28;20029;-82
2022/08/16 07:23:20;;;;;;;4.80;2.83;;;23.60;82.40;;;;;;5036134;28;20104;-82
2022/08/16 07:25:46;;;;;;;5.80;2.95;;;23.60;82.40;;;;;;5035482;28;20018;-82
2022/08/16 07:28:14;;;;;;;4.78;2.80;;;23.60;82.60;;;;;;5037265;28;20515;-82
2022/08/16 07:30:40;;;;;;;6.93;2.92;;;23.60;82.60;;;;;;5035193;28;20036;-82
2022/08/16 07:33:06;;;;;;;5.38;2.97;;;23.60;82.70;;;;;;5036961;28;20105;-82
2022/08/16 07:35:31;;;;;;;5.20;3.00;;;23.60;82.70;;;;;;5035718;28;20072;-83
2022/08/16 07:37:57;;;;;;;5.63;2.92;;;23.50;82.70;;;;;;5034675;28;20075;-82
2022/08/16 07:40:24;;;;;;;5.53;2.78;;;23.60;82.80;;;;;;5036465;28;20030;-83
2022/08/16 07:42:50;;;;;;;5.10;2.83;;;23.60;82.80;;;;;;5034610;28;20025;-82
2022/08/16 07:45:15;;;;;;;5.25;2.90;;;23.60;82.60;;;;;;5036564;28;20075;-82
2022/08/16 07:47:42;;;;;;;4.57;2.78;;;23.70;82.60;;;;;;5036977;28;20033;-82
2022/08/16 07:50:09;;;;;;;6.35;3.17;;;23.70;82.40;;;;;;5033849;28;20037;-79
2022/08/16 07:52:35;;;;;;;5.63;3.00;;;23.80;82.10;;;;;;5034564;28;20071;-82
2022/08/16 07:55:00;;;;;;;5.40;2.85;;;23.80;81.90;;;;;;5038295;28;20022;-82
2022/08/16 07:57:26;;;;;;;4.25;2.63;;;23.90;81.70;;;;;;5038621;28;20507;-82
2022/08/16 07:59:51;;;;;;;5.28;3.35;;;23.90;81.50;;;;;;5038343;28;20120;-82
2022/08/16 08:02:17;;;;;;;5.53;3.20;;;24.00;81.30;;;;;;5038006;28;20029;-82
2022/08/16 08:04:43;;;;;;;6.53;3.00;;;24.00;81.30;;;;;;5040253;28;20484;-83
2022/08/16 08:07:08;;;;;;;4.45;2.90;;;24.00;81.40;;;;;;5042475;28;20040;-83
2022/08/16 08:09:34;;;;;;;4.53;2.85;;;24.00;81.40;;;;;;5040735;28;20060;-83
2022/08/16 08:11:59;;;;;;;5.65;3.65;;;24.00;81.30;;;;;;5041938;28;20060;-83
2022/08/16 08:14:25;;;;;;;5.50;3.53;;;24.00;81.40;;;;;;5042224;28;20026;-83
2022/08/16 08:16:51;;;;;;;5.50;3.63;;;24.00;81.30;;;;;;5040408;28;20027;-83
2022/08/16 08:19:16;;;;;;;5.93;3.53;;;24.00;81.30;;;;;;5041039;28;20096;-81
2022/08/16 08:21:42;;;;;;;5.70;3.60;;;24.10;81.40;;;;;;5040173;28;20043;-83
2022/08/16 08:24:11;;;;;;;5.63;3.53;;;24.10;81.40;;;;;;5040444;28;20053;-82
2022/08/16 08:26:36;;;;;;;5.97;3.70;;;24.10;81.40;;;;;;5041032;28;20037;-81
2022/08/16 08:29:03;;;;;;;5.38;3.58;;;24.10;81.40;;;;;;5040908;28;20033;-82
2022/08/16 08:31:29;;;;;;;5.60;3.55;;;24.10;81.30;;;;;;5039757;28;20026;-83
2022/08/16 08:33:55;;;;;;;5.88;3.20;;;24.10;81.20;;;;;;5022426;28;20702;-83
2022/08/16 08:36:27;;;;;;;5.22;3.10;;;24.20;81.20;;;;;;5022335;28;20022;-83
2022/08/16 08:38:53;;;;;;;5.07;3.33;;;24.20;81.00;;;;;;5040096;28;20030;-82
2022/08/16 08:41:19;;;;;;;5.80;3.53;;;24.30;80.80;;;;;;5021491;28;20099;-83
2022/08/16 08:43:45;;;;;;;4.75;3.22;;;24.30;80.70;;;;;;5021964;28;20396;-83
2022/08/16 08:46:10;;;;;;;5.50;3.40;;;24.30;81.00;;;;;;5039755;28;20060;-84
2022/08/16 08:48:36;;;;;;;4.97;3.17;;;24.30;80.30;;;;;;5039465;28;20056;-82
2022/08/16 08:51:03;;;;;;;4.90;3.45;;;24.40;80.40;;;;;;5039520;28;20025;-82
2022/08/16 08:53:31;;;;;;;5.35;3.20;;;24.30;80.40;;;;;;5021433;28;20485;-84
2022/08/16 08:55:57;;;;;;;4.97;3.40;;;24.30;80.50;;;;;;5021456;28;20052;-81
2022/08/16 08:58:22;;;;;;;5.97;3.50;;;24.30;80.60;;;;;;5021204;28;20476;-81
2022/08/16 09:00:48;;;;;;;5.90;3.40;;;24.30;80.70;;;;;;5038605;28;20029;-82
2022/08/16 09:03:13;;;;;;;5.32;3.28;;;24.40;80.70;;;;;;5021236;28;20065;-82
2022/08/16 09:05:40;;;;;;;6.07;3.58;;;24.40;80.70;;;;;;5038046;28;20056;-81
2022/08/16 09:08:06;;;;;;;5.57;3.53;;;24.40;80.70;;;;;;5021029;28;20022;-81
2022/08/16 09:10:32;;;;;;;5.07;3.55;;;24.40;81.20;;;;;;5038483;28;20031;-82
2022/08/16 09:12:57;;;;;;;5.20;3.38;;;24.40;80.60;;;;;;5024962;28;20021;-83
2022/08/16 09:15:25;;;;;;;6.10;3.50;;;24.40;80.50;;;;;;5024271;28;20060;-84
2022/08/16 09:17:54;;;;;;;5.50;3.63;;;24.40;80.50;;;;;;5022883;28;20505;-84
2022/08/16 09:20:20;;;;;;;5.10;3.25;;;24.50;80.50;;;;;;5022525;28;20095;-83
2022/08/16 09:22:46;;;;;;;5.32;3.55;;;24.50;80.40;;;;;;5023958;28;20118;-83
2022/08/16 09:25:12;;;;;;;5.35;3.40;;;24.50;80.20;;;;;;5023978;28;20033;-84
2022/08/16 09:27:38;;;;;;;5.00;3.53;;;24.60;80.20;;;;;;5023467;28;20033;-82
2022/08/16 09:30:07;;;;;;;5.63;3.40;;;24.60;80.00;;;;;;5040518;28;20089;-84
2022/08/16 09:32:33;;;;;;;5.55;3.40;;;24.60;79.90;;;;;;5022453;28;20032;-81
2022/08/16 09:35:00;;;;;;;5.80;3.58;;;24.60;79.90;;;;;;5023006;28;20089;-83
2022/08/16 09:37:27;;;;;;;4.75;3.33;;;24.60;79.90;;;;;;5022516;28;20026;-84
2022/08/16 09:39:52;;;;;;;5.38;3.50;;;24.60;80.00;;;;;;5021741;28;20025;-82
2022/08/16 09:42:18;;;;;;;5.15;3.45;;;24.60;80.10;;;;;;5039322;28;20619;-84
2022/08/16 09:44:43;;;;;;;6.40;3.75;;;24.60;80.10;;;;;;5021604;28;20033;-83
2022/08/16 09:47:09;;;;;;;6.20;3.20;;;24.60;80.10;;;;;;5021350;28;20033;-83
2022/08/16 09:49:35;;;;;;;5.03;3.42;;;24.60;80.10;;;;;;5020610;28;20485;-83
2022/08/16 09:52:00;;;;;;;5.70;3.58;;;24.60;80.10;;;;;;5020991;28;20481;-82
2022/08/16 09:54:26;;;;;;;5.97;3.45;;;24.60;80.20;;;;;;5038558;28;20026;-81
2022/08/16 09:56:52;;;;;;;4.95;3.30;;;24.60;80.10;;;;;;5020878;28;20080;-82
2022/08/16 09:59:18;;;;;;;5.13;3.60;;;24.60;80.10;;;;;;5020556;28;20734;-82
2022/08/16 10:01:43;;;;;;;5.07;3.35;;;24.60;80.20;;;;;;5020071;28;20512;-83
2022/08/16 10:04:10;;;;;;;5.45;3.80;;;24.60;80.00;;;;;;5038536;28;20535;-82
2022/08/16 10:06:36;;;;;;;5.85;3.55;;;24.60;80.00;;;;;;5020092;28;20029;-81
2022/08/16 10:09:06;;;;;;;4.90;3.42;;;24.60;80.10;;;;;;5020040;28;20026;-83
2022/08/16 10:13:10;;;;;;;5.13;3.30;;;24.70;80.10;;;;;;5037452;28;20026;-82
2022/08/16 10:14:37;;;;;;;4.97;3.28;;;24.70;79.90;;;;;;5037080;28;20017;-81
2022/08/16 10:17:04;;;;;;;4.95;3.30;;;24.80;79.90;;;;;;5019109;28;20029;-82
2022/08/16 10:19:30;;;;;;;5.40;3.40;;;24.80;79.80;;;;;;5019064;28;20505;-83
2022/08/16 10:21:56;;;;;;;5.05;3.25;;;24.70;79.60;;;;;;5019527;28;20083;-82
2022/08/16 10:24:22;;;;;;;5.10;2.85;;;24.80;79.80;;;;;;5037569;28;20029;-82
2022/08/16 10:26:48;;;;;;;5.15;3.35;;;24.70;79.80;;;;;;5037197;28;20504;-81
2022/08/16 10:29:14;;;;;;;5.07;3.38;;;24.70;79.80;;;;;;5019015;28;20029;-81
2022/08/16 10:31:40;;;;;;;4.63;3.08;;;24.70;80.00;;;;;;5018552;28;20074;-83
2022/08/16 10:34:07;;;;;;;4.90;3.03;;;24.70;80.00;;;;;;5019473;28;20053;-81
2022/08/16 10:36:32;;;;;;;5.13;3.03;;;24.70;79.90;;;;;;5018757;28;20032;-82
2022/08/16 10:38:58;;;;;;;4.65;3.00;;;24.70;80.00;;;;;;5019129;28;20030;-81
2022/08/16 10:41:23;;;;;;;4.45;3.00;;;24.70;80.50;;;;;;5018603;28;20063;-81
2022/08/16 10:43:49;;;;;;;4.63;2.90;;;24.70;80.00;;;;;;5019089;28;20064;-82
2022/08/16 10:46:15;;;;;;;5.03;3.20;;;24.80;80.00;;;;;;5019440;28;20033;-81
2022/08/16 10:48:43;;;;;;;4.75;3.15;;;24.70;80.00;;;;;;5018755;28;20028;-82
2022/08/16 10:51:10;;;;;;;5.25;3.25;;;24.70;79.90;;;;;;5018585;28;20373;-82
2022/08/16 10:53:36;;;;;;;4.70;3.00;;;24.80;80.00;;;;;;5018768;28;20068;-81
2022/08/16 10:56:05;;;;;;;5.05;3.13;;;24.80;79.90;;;;;;5018546;28;20093;-82
2022/08/16 10:58:32;;;;;;;5.88;3.20;;;24.90;79.80;;;;;;5018363;28;20508;-84
2022/08/16 11:00:57;;;;;;;3.75;2.63;;;24.80;79.70;;;;;;5018118;28;20427;-81
2022/08/16 11:03:23;;;;;;;4.53;2.83;;;24.80;79.60;;;;;;5018371;28;20021;-82
2022/08/16 11:05:48;;;;;;;5.05;2.90;;;24.80;79.50;;;;;;5018536;28;20026;-81
2022/08/16 11:08:14;;;;;;;4.88;3.05;;;24.80;79.60;;;;;;5018892;28;20052;-83
2022/08/16 11:10:43;;;;;;;4.22;2.70;;;24.80;79.60;;;;;;5021839;28;20021;-83
2022/08/16 11:13:10;;;;;;;4.65;3.10;;;24.80;79.80;;;;;;5021574;28;20033;-82
2022/08/16 11:15:36;;;;;;;5.68;3.30;;;24.80;79.90;;;;;;5020144;28;20028;-84
2022/08/16 11:18:05;;;;;;;4.63;3.05;;;24.80;80.00;;;;;;5022203;28;20026;-83
2022/08/16 11:20:30;;;;;;;4.78;3.20;;;24.80;80.00;;;;;;5039008;28;20024;-84
2022/08/16 11:22:57;;;;;;;4.78;3.03;;;24.80;80.10;;;;;;5021329;28;20116;-84
2022/08/16 11:25:31;;;;;;;4.75;2.92;;;24.70;80.00;;;;;;5021381;28;20054;-83
2022/08/16 11:27:59;;;;;;;4.47;3.08;;;24.80;80.10;;;;;;5019796;28;20440;-83
2022/08/16 11:30:25;;;;;;;4.97;2.83;;;24.80;80.00;;;;;;5020005;28;20036;-84
2022/08/16 11:32:51;;;;;;;4.70;3.20;;;24.80;80.10;;;;;;5037565;28;20109;-85
2022/08/16 11:35:22;;;;;;;4.95;2.90;;;24.80;80.10;;;;;;5020271;28;20053;-83
2022/08/16 11:37:53;;;;;;;5.05;3.05;;;24.80;80.00;;;;;;5019417;28;20032;-82
2022/08/16 11:40:19;;;;;;;4.63;2.80;;;24.80;80.00;;;;;;5019291;28;20096;-82
2022/08/16 11:42:45;;;;;;;4.43;2.90;;;24.80;79.90;;;;;;5019082;28;20025;-82
2022/08/16 11:45:11;;;;;;;4.95;3.28;;;24.80;79.70;;;;;;5036729;28;20029;-83
2022/08/16 11:47:36;;;;;;;4.32;2.80;;;24.80;79.60;;;;;;5018984;28;20085;-81
2022/08/16 11:50:06;;;;;;;4.70;2.92;;;24.80;79.50;;;;;;5018442;28;20385;-82
2022/08/16 11:52:31;;;;;;;4.55;2.90;;;24.80;79.40;;;;;;5036482;28;20017;-81
2022/08/16 11:54:57;;;;;;;5.22;3.13;;;24.80;79.60;;;;;;5018834;28;20026;-81
2022/08/16 11:57:22;;;;;;;4.90;3.00;;;24.80;79.80;;;;;;5018488;28;20075;-83
2022/08/16 11:59:48;;;;;;;4.55;2.85;;;24.80;80.00;;;;;;5018021;28;20022;-82
2022/08/16 12:02:13;;;;;;;4.60;3.00;;;24.70;80.00;;;;;;5018404;28;20489;-81
2022/08/16 12:04:39;;;;;;;4.35;2.80;;;24.70;80.10;;;;;;5018461;28;20029;-81
2022/08/16 12:07:07;;;;;;;4.53;3.20;;;24.60;80.10;;;;;;5018309;28;20057;-81
2022/08/16 12:09:33;;;;;;;4.57;3.05;;;24.60;80.40;;;;;;5035643;28;20474;-81
2022/08/16 12:11:58;;;;;;;4.22;2.83;;;24.60;80.50;;;;;;5035915;28;20504;-82
2022/08/16 12:14:25;;;;;;;4.18;2.80;;;24.60;80.40;;;;;;5035875;28;20029;-82
2022/08/16 12:16:53;;;;;;;4.95;3.00;;;24.60;80.50;;;;;;5017878;28;20497;-82
2022/08/16 12:19:18;;;;;;;5.07;3.10;;;24.50;80.50;;;;;;5017017;28;20037;-81
2022/08/16 12:21:44;;;;;;;4.13;2.70;;;24.50;80.60;;;;;;5016669;28;20021;-85
2022/08/16 12:24:09;;;;;;;4.10;2.80;;;24.50;80.50;;;;;;5019512;28;20025;-83
2022/08/16 12:26:35;;;;;;;4.80;3.05;;;24.60;80.50;;;;;;5039143;28;20037;-82
2022/08/16 12:29:02;;;;;;;4.15;2.92;;;24.60;80.50;;;;;;5020407;28;20021;-83
2022/08/16 12:31:27;;;;;;;4.93;3.05;;;24.60;81.00;;;;;;5019782;28;20108;-83
2022/08/16 12:33:53;;;;;;;4.07;2.70;;;24.60;80.30;;;;;;5019958;28;20072;-82
2022/08/16 12:36:19;;;;;;;3.97;2.67;;;24.60;80.20;;;;;;5020135;28;20068;-85
2022/08/16 12:38:45;;;;;;;4.25;2.75;;;24.60;80.20;;;;;;5020018;28;20715;-83
2022/08/16 12:41:12;;;;;;;5.18;3.28;;;24.60;80.30;;;;;;5022842;28;20026;-82
2022/08/16 12:43:40;;;;;;;4.93;3.30;;;24.60;80.40;;;;;;5040831;28;20018;-83
2022/08/16 12:46:08;;;;;;;4.20;2.88;;;24.50;80.50;;;;;;5022709;28;20048;-82